Time;durP1;ratioP1;P1;durP2;ratioP2;P2;SDS_P1;SDS_P2;PMS_P1;PMS_P2;Temp;Humidity;BMP_temperature;BMP_pressure;BME280_temperature;BME280_humidity;BME280_pressure;Samples;Min_cycle;Max_cycle;Signal;HPM_P1;HPM_P2
2022/08/22 00:00:11;;;;;;;3.90;2.10;;;23.90;99.90;;;;;;4178058;28;20215;-71
2022/08/22 00:02:19;;;;;;;2.72;1.77;;;23.90;99.90;;;;;;4176843;28;20220;-70
2022/08/22 00:04:31;;;;;;;3.03;1.75;;;23.90;99.90;;;;;;4177848;28;20276;-70
2022/08/22 00:06:41;;;;;;;2.95;1.77;;;23.80;99.90;;;;;;4183041;28;20215;-70
2022/08/22 00:08:54;;;;;;;3.78;2.08;;;23.90;99.90;;;;;;4173348;28;20884;-71
2022/08/22 00:11:04;;;;;;;4.15;1.92;;;23.80;99.90;;;;;;4178590;28;20597;-70
2022/08/22 00:13:14;;;;;;;4.05;1.92;;;23.90;99.90;;;;;;4178035;28;20675;-70
2022/08/22 00:15:21;;;;;;;3.25;1.88;;;23.90;99.90;;;;;;4179067;28;20276;-70
2022/08/22 00:17:43;;;;;;;4.43;2.08;;;23.80;99.90;;;;;;4178052;28;20704;-70
2022/08/22 00:19:52;;;;;;;3.30;2.00;;;23.80;99.90;;;;;;4173679;28;20261;-70
2022/08/22 00:22:01;;;;;;;2.65;1.77;;;23.80;99.90;;;;;;4178109;28;20702;-70
2022/08/22 00:24:13;;;;;;;3.35;1.80;;;23.80;99.90;;;;;;4175141;28;20223;-70
2022/08/22 00:26:26;;;;;;;4.85;1.83;;;23.80;99.90;;;;;;4169347;28;21003;-70
2022/08/22 00:28:34;;;;;;;4.03;2.00;;;23.80;99.90;;;;;;4176232;28;20207;-70
2022/08/22 00:30:44;;;;;;;3.90;1.92;;;23.80;99.90;;;;;;4176032;28;20211;-70
2022/08/22 00:32:50;;;;;;;3.30;2.10;;;23.80;99.90;;;;;;4175300;28;20243;-70
2022/08/22 00:34:58;;;;;;;3.58;1.88;;;23.80;99.90;;;;;;4175258;28;20223;-70
2022/08/22 00:37:06;;;;;;;2.78;1.63;;;23.80;99.90;;;;;;4175697;28;20219;-71
2022/08/22 00:39:14;;;;;;;4.18;1.85;;;23.80;99.90;;;;;;4176521;28;20269;-70
2022/08/22 00:41:36;;;;;;;2.88;1.85;;;23.80;99.90;;;;;;4176672;28;20223;-70
2022/08/22 00:44:10;;;;;;;4.15;1.92;;;23.80;99.90;;;;;;4177105;28;20227;-70
2022/08/22 00:46:29;;;;;;;3.65;2.00;;;23.80;99.90;;;;;;4176663;28;20620;-70
2022/08/22 00:48:55;;;;;;;4.28;1.98;;;23.80;99.90;;;;;;4179556;28;20301;-71
2022/08/22 00:51:22;;;;;;;2.42;1.60;;;23.80;99.90;;;;;;4179910;28;20219;-70
2022/08/22 00:53:42;;;;;;;3.17;1.60;;;23.80;99.90;;;;;;4174723;28;20628;-71
2022/08/22 00:55:58;;;;;;;3.90;2.00;;;23.80;99.90;;;;;;4179239;28;20219;-70
2022/08/22 00:58:42;;;;;;;4.80;2.10;;;23.80;99.90;;;;;;4179747;28;20211;-70
2022/08/22 01:00:53;;;;;;;4.38;1.65;;;23.80;99.90;;;;;;4137823;28;20223;-70
2022/08/22 01:03:16;;;;;;;2.72;1.70;;;23.80;99.90;;;;;;4181853;28;20642;-70
2022/08/22 01:05:42;;;;;;;3.00;1.88;;;23.80;99.90;;;;;;4176775;28;20240;-70
2022/08/22 01:08:03;;;;;;;2.35;1.52;;;23.80;99.90;;;;;;4177268;28;20673;-70
2022/08/22 01:10:20;;;;;;;2.92;2.00;;;23.80;99.90;;;;;;4177308;28;20695;-70
2022/08/22 01:12:44;;;;;;;4.30;1.85;;;23.80;99.90;;;;;;4178912;28;20211;-70
2022/08/22 01:14:52;;;;;;;3.78;1.65;;;23.80;99.90;;;;;;4178204;28;20215;-70
2022/08/22 01:17:26;;;;;;;3.95;2.05;;;23.80;99.90;;;;;;4178971;28;20802;-70
2022/08/22 01:20:05;;;;;;;3.38;2.10;;;23.70;99.90;;;;;;4181125;28;20281;-70
2022/08/22 01:22:34;;;;;;;3.42;1.83;;;23.80;99.90;;;;;;4180573;28;21039;-70
2022/08/22 01:25:41;;;;;;;3.63;2.10;;;23.70;99.90;;;;;;4161091;28;20218;-70
2022/08/22 01:28:18;;;;;;;2.25;1.60;;;23.80;99.90;;;;;;4176583;28;20663;-70
2022/08/22 01:30:47;;;;;;;2.83;1.75;;;23.80;99.90;;;;;;4177918;28;20315;-70
2022/08/22 01:33:13;;;;;;;4.25;2.13;;;23.80;99.90;;;;;;4149202;28;20591;-71
2022/08/22 01:35:50;;;;;;;4.57;2.13;;;23.70;99.90;;;;;;4180148;28;20270;-70
2022/08/22 01:38:07;;;;;;;2.35;1.65;;;23.80;99.90;;;;;;4151153;28;20224;-70
2022/08/22 01:40:36;;;;;;;3.85;1.85;;;23.80;99.90;;;;;;4181214;28;20216;-70
2022/08/22 01:42:59;;;;;;;2.63;1.80;;;23.80;99.90;;;;;;4169450;28;20246;-70
2022/08/22 01:45:25;;;;;;;3.63;1.92;;;23.70;99.90;;;;;;4168248;28;20282;-70
2022/08/22 01:47:34;;;;;;;3.92;1.90;;;23.80;99.90;;;;;;4177920;28;20270;-70
2022/08/22 01:49:42;;;;;;;3.65;1.80;;;23.70;99.90;;;;;;4182848;28;20234;-71
2022/08/22 01:51:51;;;;;;;2.33;1.67;;;23.70;99.90;;;;;;4174649;28;20215;-70
2022/08/22 01:54:00;;;;;;;3.33;1.75;;;23.70;99.90;;;;;;4177805;28;20277;-70
2022/08/22 01:56:09;;;;;;;2.75;1.90;;;23.70;99.90;;;;;;4180925;28;20220;-70
2022/08/22 01:58:17;;;;;;;3.38;1.70;;;23.70;99.90;;;;;;4179507;28;20265;-70
2022/08/22 02:00:21;;;;;;;3.88;1.83;;;23.70;99.90;;;;;;4178989;28;20212;-70
2022/08/22 02:02:41;;;;;;;2.90;1.42;;;23.80;99.90;;;;;;4176616;28;20281;-70
2022/08/22 02:04:52;;;;;;;2.85;1.70;;;23.70;99.90;;;;;;4185649;28;20235;-70
2022/08/22 02:07:05;;;;;;;2.97;1.73;;;23.70;99.90;;;;;;4179506;28;20261;-70
2022/08/22 02:09:12;;;;;;;3.65;1.90;;;23.70;99.90;;;;;;4176417;28;20215;-70
2022/08/22 02:11:37;;;;;;;2.92;1.70;;;23.70;99.90;;;;;;4176121;28;20234;-70
2022/08/22 02:13:54;;;;;;;2.58;1.88;;;23.70;99.90;;;;;;4180452;28;20282;-70
2022/08/22 02:16:07;;;;;;;4.20;2.08;;;23.70;99.90;;;;;;4179052;28;20220;-70
2022/08/22 02:18:19;;;;;;;3.65;1.92;;;23.70;99.90;;;;;;4178981;28;20262;-70
2022/08/22 02:20:25;;;;;;;2.53;1.58;;;23.80;99.90;;;;;;4179415;28;20203;-70
2022/08/22 02:22:36;;;;;;;4.05;2.00;;;23.70;99.90;;;;;;4179981;28;20228;-70
2022/08/22 02:24:51;;;;;;;3.92;1.70;;;23.70;99.90;;;;;;4180295;28;20215;-71
2022/08/22 02:27:07;;;;;;;2.75;1.88;;;23.70;99.90;;;;;;4178737;28;20265;-70
2022/08/22 02:29:14;;;;;;;2.42;1.58;;;23.70;99.90;;;;;;4173554;28;20261;-70
2022/08/22 02:31:21;;;;;;;4.78;2.08;;;23.70;99.90;;;;;;4180544;28;20243;-70
2022/08/22 02:33:31;;;;;;;3.95;2.10;;;23.70;99.90;;;;;;4180794;28;20220;-70
2022/08/22 02:35:47;;;;;;;3.63;1.83;;;23.70;99.90;;;;;;4178718;28;20223;-71
2022/08/22 02:38:05;;;;;;;3.40;2.10;;;23.70;99.90;;;;;;4172167;28;21064;-71
2022/08/22 02:40:15;;;;;;;3.92;1.83;;;23.70;99.90;;;;;;4179643;28;20719;-71
2022/08/22 02:42:27;;;;;;;3.30;1.75;;;23.70;99.90;;;;;;4177519;28;20261;-71
2022/08/22 02:44:33;;;;;;;2.97;1.88;;;23.70;99.90;;;;;;4175584;28;20220;-71
2022/08/22 02:46:48;;;;;;;4.88;2.13;;;23.70;99.90;;;;;;4178413;28;20285;-71
2022/08/22 02:48:58;;;;;;;4.53;2.13;;;23.70;99.90;;;;;;4172337;28;20219;-71
2022/08/22 02:51:08;;;;;;;2.58;1.63;;;23.70;99.90;;;;;;4175915;28;20269;-71
2022/08/22 02:53:17;;;;;;;3.65;1.80;;;23.70;99.90;;;;;;4175578;28;20265;-70
2022/08/22 02:55:33;;;;;;;3.03;1.80;;;23.70;99.90;;;;;;4177614;28;20211;-70
2022/08/22 02:57:42;;;;;;;3.22;1.85;;;23.70;99.90;;;;;;4177772;28;20258;-70
2022/08/22 03:00:06;;;;;;;4.03;2.08;;;23.70;99.90;;;;;;4177532;28;20223;-70
2022/08/22 03:02:34;;;;;;;2.63;1.60;;;23.70;99.90;;;;;;4177167;28;20203;-71
2022/08/22 03:04:51;;;;;;;3.50;2.03;;;23.70;99.90;;;;;;4177252;28;20733;-70
2022/08/22 03:07:08;;;;;;;2.53;1.58;;;23.70;99.90;;;;;;4178364;28;20246;-70
2022/08/22 03:09:25;;;;;;;5.07;1.80;;;23.70;99.90;;;;;;4175031;28;20215;-70
2022/08/22 03:11:31;;;;;;;2.33;1.70;;;23.70;99.90;;;;;;4177157;28;20243;-71
2022/08/22 03:13:40;;;;;;;3.20;1.90;;;23.70;99.90;;;;;;4178039;28;20224;-70
2022/08/22 03:15:48;;;;;;;3.60;2.22;;;23.70;99.90;;;;;;4177487;28;20636;-70
2022/08/22 03:17:56;;;;;;;2.95;1.65;;;23.70;99.90;;;;;;4175871;28;20344;-71
2022/08/22 03:20:02;;;;;;;3.45;1.88;;;23.70;99.90;;;;;;4178329;28;20219;-71
2022/08/22 03:22:19;;;;;;;2.85;1.73;;;23.70;99.90;;;;;;4177038;28;20215;-70
2022/08/22 03:24:31;;;;;;;2.80;1.83;;;23.70;99.90;;;;;;4177407;28;20284;-70
2022/08/22 03:26:42;;;;;;;3.42;1.75;;;23.70;99.90;;;;;;4173484;28;20216;-70
2022/08/22 03:28:49;;;;;;;3.58;1.80;;;23.70;99.90;;;;;;4172097;28;20216;-70
2022/08/22 03:31:07;;;;;;;2.60;1.77;;;23.70;99.90;;;;;;4176715;28;20659;-71
2022/08/22 03:33:16;;;;;;;3.10;1.85;;;23.70;99.90;;;;;;4175892;28;20294;-70
2022/08/22 03:35:37;;;;;;;3.45;1.85;;;23.70;99.90;;;;;;4177422;28;20273;-70
2022/08/22 03:37:42;;;;;;;1.92;1.48;;;23.70;99.90;;;;;;4177366;28;20216;-70
2022/08/22 03:39:54;;;;;;;2.97;1.77;;;23.70;99.90;;;;;;4177941;28;21043;-70
2022/08/22 03:42:29;;;;;;;2.65;1.83;;;23.70;99.90;;;;;;4175456;28;20227;-70
2022/08/22 03:44:58;;;;;;;2.97;1.90;;;23.70;99.90;;;;;;4153292;28;20548;-70
2022/08/22 03:47:21;;;;;;;2.53;1.73;;;23.70;99.90;;;;;;4170899;28;20220;-71
2022/08/22 03:50:00;;;;;;;2.70;1.90;;;23.70;99.90;;;;;;4176588;28;20273;-70
2022/08/22 03:52:22;;;;;;;3.20;2.00;;;23.70;99.90;;;;;;4137047;28;20247;-70
2022/08/22 03:54:47;;;;;;;3.97;1.80;;;23.70;99.90;;;;;;4178393;28;20271;-70
2022/08/22 03:57:18;;;;;;;3.58;1.88;;;23.70;99.90;;;;;;4178869;28;20285;-70
2022/08/22 04:00:00;;;;;;;4.10;1.90;;;23.70;99.90;;;;;;4177904;28;20266;-70
2022/08/22 04:02:37;;;;;;;3.05;1.70;;;23.60;99.90;;;;;;4160598;28;20230;-70
2022/08/22 04:05:24;;;;;;;5.75;1.90;;;23.70;99.90;;;;;;4172364;28;20239;-70
2022/08/22 04:08:07;;;;;;;2.67;1.40;;;23.70;99.90;;;;;;4172994;28;20341;-71
2022/08/22 04:10:43;;;;;;;3.80;2.03;;;23.70;99.90;;;;;;4177626;28;20727;-71
2022/08/22 04:13:15;;;;;;;2.55;1.63;;;23.60;99.90;;;;;;4179552;28;20652;-71
2022/08/22 04:15:45;;;;;;;3.25;1.80;;;23.60;99.90;;;;;;4184899;28;20215;-71
2022/08/22 04:18:11;;;;;;;3.10;1.83;;;23.70;99.90;;;;;;4174336;28;20714;-71
2022/08/22 04:20:51;;;;;;;3.72;1.90;;;23.70;99.90;;;;;;4175766;28;20211;-71
2022/08/22 04:23:19;;;;;;;2.95;1.65;;;23.60;99.90;;;;;;4138542;28;20748;-71
2022/08/22 04:25:28;;;;;;;2.92;1.90;;;23.60;99.90;;;;;;4172467;28;20220;-71
2022/08/22 04:27:36;;;;;;;2.60;1.67;;;23.70;99.90;;;;;;4182169;28;20340;-71
2022/08/22 04:29:48;;;;;;;5.13;1.80;;;23.60;99.90;;;;;;4183789;28;20215;-71
2022/08/22 04:31:58;;;;;;;2.53;1.60;;;23.60;99.90;;;;;;4190182;28;20281;-71
2022/08/22 04:34:05;;;;;;;2.92;1.70;;;23.60;99.90;;;;;;4180512;28;20292;-71
2022/08/22 04:36:16;;;;;;;3.15;1.90;;;23.70;99.90;;;;;;4182964;28;20215;-71
2022/08/22 04:38:23;;;;;;;4.55;1.92;;;23.60;99.90;;;;;;4179431;28;20227;-71
2022/08/22 04:40:31;;;;;;;3.00;1.80;;;23.60;99.90;;;;;;4180968;28;20729;-71
2022/08/22 04:42:40;;;;;;;3.67;1.80;;;23.60;99.90;;;;;;4181017;28;20273;-71
2022/08/22 04:44:49;;;;;;;2.22;1.40;;;23.60;99.90;;;;;;4178105;28;20277;-71
2022/08/22 04:47:00;;;;;;;3.33;1.75;;;23.60;99.90;;;;;;4174118;28;20211;-71
2022/08/22 04:49:07;;;;;;;2.90;1.73;;;23.70;99.90;;;;;;4182729;28;20220;-71
2022/08/22 04:51:17;;;;;;;4.68;1.70;;;23.70;99.90;;;;;;4178183;28;20281;-71
2022/08/22 04:53:33;;;;;;;3.22;2.03;;;23.60;99.90;;;;;;4179318;28;20215;-71
2022/08/22 04:55:46;;;;;;;2.25;1.73;;;23.60;99.90;;;;;;4179699;28;20682;-71
2022/08/22 04:57:57;;;;;;;3.00;1.67;;;23.60;99.90;;;;;;4179640;28;20582;-71
2022/08/22 05:00:04;;;;;;;4.28;1.88;;;23.60;99.90;;;;;;4178959;28;20231;-71
2022/08/22 05:02:10;;;;;;;2.53;1.90;;;23.70;99.90;;;;;;4178979;28;20207;-71
2022/08/22 05:04:18;;;;;;;2.45;1.85;;;23.70;99.90;;;;;;4178057;28;20297;-71
2022/08/22 05:06:25;;;;;;;2.65;1.75;;;23.70;99.90;;;;;;4179406;28;20329;-71
2022/08/22 05:08:31;;;;;;;3.03;1.60;;;23.60;99.90;;;;;;4177186;28;20643;-71
2022/08/22 05:10:37;;;;;;;3.63;1.90;;;23.60;99.90;;;;;;4179681;28;20220;-71
2022/08/22 05:12:44;;;;;;;3.90;1.95;;;23.70;99.90;;;;;;4179879;28;20243;-71
2022/08/22 05:14:51;;;;;;;3.83;1.83;;;23.60;99.90;;;;;;4179372;28;20262;-71
2022/08/22 05:17:00;;;;;;;2.75;1.70;;;23.70;99.90;;;;;;4171513;28;20264;-71
2022/08/22 05:19:09;;;;;;;4.03;1.98;;;23.60;99.90;;;;;;4178954;28;20238;-71
2022/08/22 05:21:12;;;;;;;3.97;1.98;;;23.70;99.90;;;;;;4178008;28;20261;-71
2022/08/22 05:23:19;;;;;;;3.97;1.70;;;23.60;99.90;;;;;;4177763;28;20281;-71
2022/08/22 05:25:27;;;;;;;2.83;1.80;;;23.70;99.90;;;;;;4178081;28;20212;-71
2022/08/22 05:27:33;;;;;;;2.40;1.55;;;23.70;99.90;;;;;;4176956;28;20216;-71
2022/08/22 05:29:40;;;;;;;3.17;1.92;;;23.60;99.90;;;;;;4177802;28;20269;-71
2022/08/22 05:31:48;;;;;;;2.97;1.85;;;23.70;99.90;;;;;;4177675;28;20251;-71
2022/08/22 05:34:00;;;;;;;3.15;1.83;;;23.60;99.90;;;;;;4179971;28;20219;-71
2022/08/22 05:36:07;;;;;;;4.22;1.88;;;23.60;99.90;;;;;;4177921;28;20264;-71
2022/08/22 05:38:14;;;;;;;4.15;2.05;;;23.70;99.90;;;;;;4178285;28;20210;-71
2022/08/22 05:40:23;;;;;;;3.38;1.85;;;23.60;99.90;;;;;;4171826;28;20714;-71
2022/08/22 05:42:28;;;;;;;2.90;1.95;;;23.60;99.90;;;;;;4177894;28;20757;-71
2022/08/22 05:44:33;;;;;;;2.25;1.60;;;23.60;99.90;;;;;;4178505;28;20318;-71
2022/08/22 05:46:42;;;;;;;3.05;1.63;;;23.60;99.90;;;;;;4180671;28;20223;-71
2022/08/22 05:48:52;;;;;;;3.17;1.88;;;23.60;99.90;;;;;;4178815;28;20364;-71
2022/08/22 05:51:03;;;;;;;2.58;1.60;;;23.60;99.90;;;;;;4179677;28;20272;-71
2022/08/22 05:53:09;;;;;;;2.95;2.03;;;23.60;99.90;;;;;;4178976;28;20228;-71
2022/08/22 05:55:22;;;;;;;4.97;2.08;;;23.60;99.90;;;;;;4180357;28;20269;-71
2022/08/22 05:57:30;;;;;;;3.17;1.77;;;23.60;99.90;;;;;;4180014;28;20242;-71
2022/08/22 05:59:35;;;;;;;2.88;1.75;;;23.60;99.90;;;;;;4175340;28;20618;-71
2022/08/22 06:01:45;;;;;;;3.38;1.88;;;23.60;99.90;;;;;;4179882;28;20273;-71
2022/08/22 06:03:56;;;;;;;3.42;2.03;;;23.60;99.90;;;;;;4179728;28;20573;-71
2022/08/22 06:06:10;;;;;;;3.42;1.80;;;23.60;99.90;;;;;;4176319;28;20215;-71
2022/08/22 06:08:20;;;;;;;4.05;1.90;;;23.60;99.90;;;;;;4174620;28;20269;-71
2022/08/22 06:10:26;;;;;;;1.95;1.50;;;23.70;99.90;;;;;;4181125;28;20268;-71
2022/08/22 06:12:34;;;;;;;2.70;1.95;;;23.70;99.90;;;;;;4184744;28;20299;-71
2022/08/22 06:14:43;;;;;;;3.75;2.50;;;23.60;99.90;;;;;;4183197;28;20278;-71
2022/08/22 06:16:49;;;;;;;3.10;1.83;;;23.70;99.90;;;;;;4174645;28;20637;-71
2022/08/22 06:18:53;;;;;;;3.90;2.10;;;23.60;99.90;;;;;;4181495;28;20211;-71
2022/08/22 06:20:58;;;;;;;4.88;2.10;;;23.60;99.90;;;;;;4179573;28;20223;-71
2022/08/22 06:23:03;;;;;;;3.55;2.05;;;23.60;99.90;;;;;;4181043;28;20265;-71
2022/08/22 06:25:12;;;;;;;3.08;1.70;;;23.60;99.90;;;;;;4181534;28;20212;-71
2022/08/22 06:27:18;;;;;;;2.45;1.83;;;23.70;99.90;;;;;;4179567;28;20552;-71
2022/08/22 06:29:33;;;;;;;2.63;1.80;;;23.60;99.90;;;;;;4186952;28;20222;-71
2022/08/22 06:31:43;;;;;;;3.47;2.20;;;23.60;99.90;;;;;;4179324;28;20627;-71
2022/08/22 06:33:55;;;;;;;3.10;1.70;;;23.60;99.90;;;;;;4174573;28;20223;-71
2022/08/22 06:38:25;;;;;;;2.53;1.80;;;23.60;99.90;;;;;;4180534;28;20196;-71
2022/08/22 06:40:28;;;;;;;2.55;1.73;;;23.60;99.90;;;;;;4180170;28;20277;-71
2022/08/22 06:42:33;;;;;;;3.75;1.83;;;23.60;99.90;;;;;;4184100;28;20526;-71
2022/08/22 06:44:38;;;;;;;3.85;1.77;;;23.60;99.90;;;;;;4187151;28;20272;-71
2022/08/22 06:46:44;;;;;;;4.93;2.50;;;23.70;99.90;;;;;;4182335;28;20219;-71
2022/08/22 06:48:47;;;;;;;3.25;1.95;;;23.70;99.90;;;;;;4178826;28;20261;-71
2022/08/22 06:50:56;;;;;;;3.97;2.30;;;23.70;99.90;;;;;;4179127;28;20231;-71
2022/08/22 06:53:04;;;;;;;4.32;2.13;;;23.70;99.90;;;;;;4178973;28;20223;-71
2022/08/22 06:55:09;;;;;;;3.03;1.80;;;23.70;99.90;;;;;;4180695;28;20215;-71
2022/08/22 06:57:26;;;;;;;8.57;2.80;;;23.70;99.90;;;;;;4179407;28;20878;-71
2022/08/22 06:59:31;;;;;;;8.38;2.90;;;23.60;99.90;;;;;;4175958;28;20621;-70
2022/08/22 07:01:39;;;;;;;11.90;3.30;;;23.40;99.90;;;;;;4178627;28;20220;-70
2022/08/22 07:03:46;;;;;;;11.63;3.58;;;23.30;99.90;;;;;;4176106;28;20224;-70
2022/08/22 07:05:48;;;;;;;14.40;3.85;;;23.20;99.90;;;;;;4170728;28;20273;-71
2022/08/22 07:07:51;;;;;;;8.95;3.20;;;23.20;99.90;;;;;;4171478;28;20272;-70
2022/08/22 07:09:56;;;;;;;9.77;3.63;;;23.20;99.90;;;;;;4160816;28;20247;-71
2022/08/22 07:12:03;;;;;;;11.30;3.60;;;23.10;99.90;;;;;;4165681;28;20277;-72
2022/08/22 07:14:07;;;;;;;9.18;3.88;;;23.00;99.90;;;;;;4174559;28;20232;-70
2022/08/22 07:16:10;;;;;;;10.45;3.65;;;23.00;99.90;;;;;;4173644;28;20220;-72
2022/08/22 07:18:19;;;;;;;14.07;3.33;;;23.10;99.90;;;;;;4173164;28;20925;-71
2022/08/22 07:20:26;;;;;;;11.00;4.53;;;23.10;99.90;;;;;;4168755;28;20204;-73
2022/08/22 07:22:32;;;;;;;13.27;4.10;;;23.10;99.90;;;;;;4175900;28;20206;-73
2022/08/22 07:24:35;;;;;;;11.77;3.92;;;23.20;99.90;;;;;;4171078;28;20309;-72
2022/08/22 07:26:49;;;;;;;15.07;4.43;;;23.20;99.90;;;;;;4168592;28;20234;-74
2022/08/22 07:28:57;;;;;;;16.45;4.30;;;23.20;99.90;;;;;;4173152;28;20224;-76
2022/08/22 07:31:07;;;;;;;14.23;4.38;;;23.20;99.90;;;;;;4170419;28;20600;-73
2022/08/22 07:33:22;;;;;;;19.85;4.35;;;23.00;99.90;;;;;;4173519;28;20289;-73
2022/08/22 07:35:28;;;;;;;18.60;4.90;;;23.00;99.90;;;;;;4172803;28;20219;-74
2022/08/22 07:37:49;;;;;;;15.90;4.60;;;23.00;99.90;;;;;;4170528;28;20269;-72
2022/08/22 07:39:54;;;;;;;17.83;4.22;;;23.10;99.90;;;;;;4170257;28;20216;-74
2022/08/22 07:42:10;;;;;;;11.98;4.47;;;23.10;99.90;;;;;;4178356;28;20223;-74
2022/08/22 07:44:18;;;;;;;14.50;4.60;;;23.10;99.90;;;;;;4169370;28;20253;-75
2022/08/22 07:46:31;;;;;;;13.38;4.22;;;23.00;99.90;;;;;;4164659;28;20249;-74
2022/08/22 07:48:41;;;;;;;12.35;4.15;;;23.10;99.90;;;;;;4166901;28;20235;-76
2022/08/22 07:50:56;;;;;;;14.43;4.68;;;22.90;99.90;;;;;;4166909;28;20212;-77
2022/08/22 07:53:06;;;;;;;22.08;5.15;;;22.90;99.90;;;;;;4168541;28;20236;-78
2022/08/22 07:55:15;;;;;;;16.00;4.70;;;22.90;99.90;;;;;;4170311;28;20223;-77
2022/08/22 07:57:26;;;;;;;22.02;4.93;;;22.90;99.90;;;;;;4166078;28;20219;-75
2022/08/22 07:59:32;;;;;;;16.92;4.70;;;23.00;99.90;;;;;;4170509;28;20212;-74
2022/08/22 08:01:36;;;;;;;13.50;4.07;;;23.00;99.90;;;;;;4167771;28;20227;-75
2022/08/22 08:03:39;;;;;;;14.55;4.35;;;23.20;99.90;;;;;;4172694;28;20208;-73
2022/08/22 08:05:44;;;;;;;9.65;3.70;;;23.10;99.90;;;;;;4171991;28;20235;-75
2022/08/22 08:07:47;;;;;;;10.00;3.95;;;23.00;99.90;;;;;;4172444;28;20273;-72
2022/08/22 08:09:53;;;;;;;11.27;3.83;;;23.00;99.90;;;;;;4166539;28;20227;-72
2022/08/22 08:11:56;;;;;;;9.63;3.97;;;23.00;99.90;;;;;;4171804;28;20603;-73
2022/08/22 08:14:03;;;;;;;9.20;3.85;;;23.00;99.90;;;;;;4168912;28;20321;-72
2022/08/22 08:16:11;;;;;;;8.52;3.70;;;23.10;99.90;;;;;;4171282;28;20683;-72
2022/08/22 08:18:24;;;;;;;9.98;3.47;;;23.20;99.90;;;;;;4164566;28;20220;-71
2022/08/22 08:20:28;;;;;;;13.18;4.07;;;23.10;99.90;;;;;;4173737;28;20228;-72
2022/08/22 08:22:32;;;;;;;9.40;3.08;;;23.20;99.90;;;;;;4170857;28;20341;-72
2022/08/22 08:24:38;;;;;;;14.85;3.75;;;23.20;99.90;;;;;;4174782;28;20204;-73
2022/08/22 08:28:32;;;;;;;11.90;3.67;;;23.20;99.90;;;;;;4169082;28;20270;-72
2022/08/22 08:29:07;;;;;;;11.55;3.60;;;23.20;99.90;;;;;;4170128;28;20267;-71
2022/08/22 08:31:19;;;;;;;14.25;3.80;;;23.30;99.90;;;;;;4168368;28;20216;-71
2022/08/22 08:33:25;;;;;;;10.60;3.80;;;23.10;99.90;;;;;;4171082;28;20236;-72
2022/08/22 08:35:30;;;;;;;7.13;3.60;;;23.20;99.90;;;;;;4172622;28;21065;-71
2022/08/22 08:37:41;;;;;;;11.45;3.60;;;23.30;99.90;;;;;;4175149;28;20358;-72
2022/08/22 08:39:49;;;;;;;12.45;3.58;;;23.30;99.90;;;;;;4165941;28;20963;-71
2022/08/22 08:42:15;;;;;;;8.52;3.72;;;23.30;99.90;;;;;;4170552;28;20216;-71
2022/08/22 08:44:31;;;;;;;11.60;3.50;;;23.30;99.90;;;;;;4168032;28;20269;-71
2022/08/22 08:47:16;;;;;;;9.98;3.25;;;23.30;99.90;;;;;;4169762;28;20215;-72
2022/08/22 08:49:35;;;;;;;10.15;3.63;;;23.30;99.90;;;;;;4150940;28;20261;-72
2022/08/22 08:52:06;;;;;;;11.48;4.03;;;23.40;99.90;;;;;;4173708;28;20224;-72
2022/08/22 08:54:35;;;;;;;11.52;3.90;;;23.40;99.90;;;;;;4168877;28;20311;-73
2022/08/22 08:56:47;;;;;;;15.70;4.28;;;23.30;99.90;;;;;;4170333;28;20219;-73
2022/08/22 08:58:59;;;;;;;10.85;4.25;;;23.30;99.90;;;;;;4172907;28;20825;-72
2022/08/22 09:01:17;;;;;;;15.15;4.53;;;23.30;99.90;;;;;;4175536;28;20311;-72
2022/08/22 09:03:52;;;;;;;13.18;4.50;;;23.40;99.90;;;;;;4167041;28;20204;-72
2022/08/22 09:06:16;;;;;;;12.73;3.92;;;23.40;99.90;;;;;;4169273;28;20266;-72
2022/08/22 09:08:51;;;;;;;15.43;4.80;;;23.40;99.90;;;;;;4175358;28;20319;-72
2022/08/22 09:11:20;;;;;;;15.77;4.63;;;23.40;99.90;;;;;;4173449;28;20972;-72
2022/08/22 09:13:45;;;;;;;25.10;4.32;;;23.50;99.90;;;;;;4176302;28;20287;-73
2022/08/22 09:16:04;;;;;;;15.27;3.83;;;23.50;99.90;;;;;;4174510;28;20274;-73
2022/08/22 09:18:34;;;;;;;10.15;3.22;;;23.60;99.90;;;;;;4170704;28;20220;-71
2022/08/22 09:21:01;;;;;;;12.63;3.78;;;23.50;99.90;;;;;;4167799;28;20225;-71
2022/08/22 09:23:46;;;;;;;12.18;3.45;;;23.60;99.90;;;;;;4171716;28;20657;-71
2022/08/22 09:25:52;;;;;;;12.13;3.50;;;23.70;99.90;;;;;;4176473;28;21028;-71
2022/08/22 09:28:01;;;;;;;11.40;3.63;;;23.70;99.90;;;;;;4175565;28;20219;-71
2022/08/22 09:30:08;;;;;;;11.05;3.50;;;23.70;99.90;;;;;;4175996;28;20265;-71
2022/08/22 09:32:18;;;;;;;8.75;3.47;;;23.80;99.90;;;;;;4176695;28;20215;-72
2022/08/22 09:34:29;;;;;;;8.82;3.38;;;23.80;99.90;;;;;;4177775;28;20223;-72
2022/08/22 09:36:41;;;;;;;10.15;2.88;;;23.80;99.90;;;;;;4177263;28;20219;-71
2022/08/22 09:38:56;;;;;;;8.85;3.10;;;23.80;99.90;;;;;;4171412;28;20280;-72
2022/08/22 09:41:09;;;;;;;9.00;3.10;;;23.80;99.90;;;;;;4170486;28;22863;-70
2022/08/22 09:43:14;;;;;;;12.85;3.03;;;23.90;99.90;;;;;;4175868;28;20211;-71
2022/08/22 09:45:38;;;;;;;13.20;3.35;;;23.90;99.90;;;;;;4175230;28;20215;-71
2022/08/22 09:47:48;;;;;;;9.07;2.85;;;23.80;99.90;;;;;;4175288;28;20219;-71
2022/08/22 09:50:03;;;;;;;13.68;3.55;;;23.90;99.90;;;;;;4172616;28;20262;-71
2022/08/22 09:52:09;;;;;;;10.98;2.95;;;24.00;99.90;;;;;;4171121;28;20217;-71
2022/08/22 09:54:28;;;;;;;10.70;2.97;;;24.10;99.90;;;;;;4178718;28;20243;-71
2022/08/22 09:56:37;;;;;;;8.88;2.92;;;24.10;99.90;;;;;;4172599;28;20653;-72
2022/08/22 09:58:47;;;;;;;12.40;3.22;;;24.10;99.90;;;;;;4170890;28;20207;-72
2022/08/22 10:00:56;;;;;;;14.82;2.95;;;24.10;99.90;;;;;;4170252;28;22036;-71
2022/08/22 10:03:06;;;;;;;8.90;2.67;;;24.10;99.90;;;;;;4174493;28;20277;-72
2022/08/22 10:05:16;;;;;;;9.57;2.90;;;24.20;99.90;;;;;;4168239;28;20280;-72
2022/08/22 10:07:34;;;;;;;8.68;2.72;;;24.30;99.90;;;;;;4174078;28;20687;-71
2022/08/22 10:09:47;;;;;;;9.73;2.97;;;24.30;99.90;;;;;;4174227;28;20476;-71
2022/08/22 10:11:58;;;;;;;9.63;2.88;;;24.30;99.90;;;;;;4173088;28;20272;-71
2022/08/22 10:14:03;;;;;;;6.32;2.50;;;24.30;99.90;;;;;;4172958;28;21930;-71
2022/08/22 10:16:19;;;;;;;10.25;3.17;;;24.30;99.90;;;;;;4172695;28;20328;-70
2022/08/22 10:18:30;;;;;;;8.32;2.80;;;24.40;99.90;;;;;;4172763;28;20658;-71
2022/08/22 10:20:43;;;;;;;12.30;2.95;;;24.40;99.90;;;;;;4174461;28;20305;-72
2022/08/22 10:22:58;;;;;;;6.80;2.78;;;24.40;99.90;;;;;;4172738;28;20283;-72
2022/08/22 10:25:36;;;;;;;9.52;2.80;;;24.40;99.90;;;;;;4173670;28;20211;-72
2022/08/22 10:27:52;;;;;;;9.63;2.30;;;24.40;99.90;;;;;;4178133;28;20211;-73
2022/08/22 10:30:05;;;;;;;7.47;2.70;;;24.50;99.90;;;;;;4172222;28;20273;-72
2022/08/22 10:32:19;;;;;;;10.68;2.65;;;24.50;99.90;;;;;;4170648;28;20289;-74
2022/08/22 10:34:27;;;;;;;8.48;2.33;;;24.50;99.90;;;;;;4170934;28;20244;-74
2022/08/22 10:36:38;;;;;;;9.05;2.35;;;24.50;99.90;;;;;;4172297;28;20626;-75
2022/08/22 10:38:45;;;;;;;7.85;2.45;;;24.40;99.90;;;;;;4176970;28;20211;-77
2022/08/22 10:40:54;;;;;;;9.18;2.13;;;24.50;99.90;;;;;;4172048;28;20674;-76
2022/08/22 10:43:04;;;;;;;6.78;2.10;;;24.40;99.90;;;;;;4173830;28;20211;-75
2022/08/22 10:45:27;;;;;;;6.68;2.05;;;24.40;99.90;;;;;;4173863;28;20269;-75
2022/08/22 10:47:35;;;;;;;6.60;2.08;;;24.50;99.90;;;;;;4171626;28;20266;-76
2022/08/22 10:49:44;;;;;;;7.05;2.03;;;24.50;99.90;;;;;;4173136;28;20275;-77
2022/08/22 10:51:53;;;;;;;4.85;2.22;;;24.40;99.90;;;;;;4173975;28;20227;-76
2022/08/22 10:54:25;;;;;;;8.57;2.00;;;24.50;99.90;;;;;;4174952;28;20326;-77
2022/08/22 10:56:34;;;;;;;5.65;2.10;;;24.50;99.90;;;;;;4175950;28;20648;-78
2022/08/22 10:58:41;;;;;;;7.97;2.33;;;24.50;99.90;;;;;;4173245;28;20215;-78
2022/08/22 11:00:48;;;;;;;6.15;1.92;;;24.60;99.90;;;;;;4173187;28;20216;-77
2022/08/22 11:02:56;;;;;;;6.60;2.15;;;24.60;99.90;;;;;;4169051;28;20243;-75
2022/08/22 11:05:22;;;;;;;5.45;2.22;;;24.60;99.90;;;;;;4169742;28;20223;-76
2022/08/22 11:07:45;;;;;;;6.70;2.03;;;24.60;99.90;;;;;;4171319;28;20273;-76
2022/08/22 11:09:55;;;;;;;7.18;2.10;;;24.70;99.90;;;;;;4172003;28;20319;-76
2022/08/22 11:12:04;;;;;;;8.75;2.25;;;24.70;99.90;;;;;;4166922;28;20219;-73
2022/08/22 11:14:29;;;;;;;6.65;1.95;;;24.70;99.90;;;;;;4172468;28;20215;-73
2022/08/22 11:16:48;;;;;;;6.43;2.10;;;24.70;99.90;;;;;;4175009;28;20293;-73
2022/08/22 11:19:17;;;;;;;7.93;2.20;;;24.70;99.90;;;;;;4175162;28;20556;-73
2022/08/22 11:21:27;;;;;;;3.20;1.60;;;24.70;99.90;;;;;;4172001;28;20270;-73
2022/08/22 11:23:40;;;;;;;6.68;1.98;;;24.70;99.90;;;;;;4171119;28;20220;-74
2022/08/22 11:25:53;;;;;;;5.47;2.00;;;24.80;99.90;;;;;;4169402;28;20207;-72
2022/08/22 11:28:25;;;;;;;6.50;2.10;;;24.80;99.90;;;;;;4174289;28;20285;-72
2022/08/22 11:30:33;;;;;;;3.58;1.63;;;24.80;99.90;;;;;;4167177;28;20223;-72
2022/08/22 11:32:38;;;;;;;5.30;1.80;;;24.80;99.90;;;;;;4171600;28;20223;-72
2022/08/22 11:34:49;;;;;;;5.97;1.80;;;24.80;99.90;;;;;;4176418;28;20583;-72
2022/08/22 11:37:07;;;;;;;4.70;1.80;;;24.90;99.90;;;;;;4168147;28;20627;-73